Brackett, Wisconsin
Current Conditions -  °F | °C
As of 6:56 PM on Monday 20 Oct 2014 (Local Time) from KEAU Reporting Station
Overcast Overcast  
Wind Chill: 51°   Ceiling: 4100
Heat Index: 51°   Visibility: 10mi
Dew Point: 38°   Wind: 3mph
Humidity: 61%   Direction: 10°N
Pressure: 30.03"   Gusts: NA
Location:  44.7441°N, 91.2945°W
Report Text: KEAU 202356Z 01003KT 10SM OVC041 11/03 A3003 RMK AO2 SLP173 T01060033 10150 20106 53018
Loading
Personal Weather Stations






























Interactive Weather Map
Tropical Storm Tracking
New forecast layout! Learn more

10-Day Weather Forecast

Advertisements
Track Severe Weather on mobile